createdAt,value
2022-12-14T00:02:05.173Z,6.78
2022-12-14T00:04:34.729Z,7.90
2022-12-14T00:07:03.819Z,6.40
2022-12-14T00:09:33.190Z,6.87
2022-12-14T00:12:02.242Z,6.28
2022-12-14T00:14:33.121Z,7.25
2022-12-14T00:17:02.172Z,6.40
2022-12-14T00:19:31.708Z,6.20
2022-12-14T00:22:00.840Z,6.45
2022-12-14T00:24:30.873Z,6.70
2022-12-14T00:26:59.953Z,6.88
2022-12-14T00:29:29.559Z,7.10
2022-12-14T00:32:00.035Z,6.23
2022-12-14T00:34:29.431Z,5.63
2022-12-14T00:36:58.747Z,5.88
2022-12-14T00:39:28.084Z,6.13
2022-12-14T00:44:27.774Z,5.75
2022-12-14T00:46:56.838Z,5.53
2022-12-14T00:49:28.070Z,5.57
2022-12-14T00:51:57.161Z,4.95
2022-12-14T00:54:27.041Z,5.17
2022-12-14T00:56:56.374Z,6.05
2022-12-14T00:59:27.434Z,5.35
2022-12-14T01:01:58.951Z,5.00
2022-12-14T01:04:30.243Z,4.72
2022-12-14T01:06:59.364Z,4.95
2022-12-14T01:09:29.468Z,4.85
2022-12-14T01:11:58.635Z,4.78
2022-12-14T01:14:27.978Z,5.50
2022-12-14T01:16:57.015Z,5.53
2022-12-14T01:19:26.362Z,5.27
2022-12-14T01:21:56.816Z,5.03
2022-12-14T01:24:26.324Z,4.53
2022-12-14T01:26:55.360Z,5.47
2022-12-14T01:29:25.094Z,5.50
2022-12-14T01:31:54.309Z,4.50
2022-12-14T01:34:23.793Z,5.47
2022-12-14T01:36:52.873Z,5.38
2022-12-14T01:39:23.730Z,5.40
2022-12-14T01:41:53.832Z,5.80
2022-12-14T01:44:53.743Z,5.40
2022-12-14T01:47:30.467Z,5.75
2022-12-14T01:50:06.989Z,4.97
2022-12-14T01:52:41.312Z,5.57
2022-12-14T01:55:17.891Z,5.45
2022-12-14T01:57:52.692Z,5.65
2022-12-14T02:00:23.347Z,5.55
2022-12-14T02:02:59.005Z,5.65
2022-12-14T02:05:29.535Z,5.13
2022-12-14T02:07:59.020Z,5.47
2022-12-14T02:10:32.648Z,5.38
2022-12-14T02:13:07.032Z,5.15
2022-12-14T02:15:37.075Z,4.60
2022-12-14T02:18:10.233Z,5.38
2022-12-14T02:20:50.326Z,4.90
2022-12-14T02:23:52.259Z,5.55
2022-12-14T02:27:04.749Z,5.35
2022-12-14T02:30:04.942Z,6.10
2022-12-14T02:33:09.030Z,6.68
2022-12-14T02:35:47.727Z,6.25
2022-12-14T02:38:30.067Z,6.35
2022-12-14T02:41:07.351Z,5.85
2022-12-14T02:43:47.412Z,5.20
2022-12-14T02:46:26.245Z,5.32
2022-12-14T02:49:03.517Z,5.25
2022-12-14T02:51:43.568Z,5.78
2022-12-14T02:54:19.521Z,5.57
2022-12-14T02:56:52.812Z,5.25
2022-12-14T02:59:25.231Z,6.10
2022-12-14T03:01:57.079Z,5.30
2022-12-14T03:04:26.645Z,5.07
2022-12-14T03:07:02.692Z,5.15
2022-12-14T03:09:33.277Z,5.25
2022-12-14T03:14:40.016Z,5.63
2022-12-14T03:17:19.416Z,6.13
2022-12-14T03:19:54.069Z,5.40
2022-12-14T03:22:28.553Z,5.45
2022-12-14T03:25:01.699Z,5.45
2022-12-14T03:27:34.174Z,5.95
2022-12-14T03:30:09.642Z,6.10
2022-12-14T03:32:45.500Z,5.40
2022-12-14T03:35:19.435Z,5.57
2022-12-14T03:37:55.718Z,5.53
2022-12-14T03:40:32.398Z,6.03
2022-12-14T03:43:07.440Z,5.35
2022-12-14T03:45:45.588Z,5.72
2022-12-14T03:48:26.068Z,6.10
2022-12-14T03:51:03.968Z,6.15
2022-12-14T03:53:39.804Z,5.72
2022-12-14T03:56:13.984Z,6.50
2022-12-14T03:58:57.149Z,5.97
2022-12-14T04:01:36.968Z,5.97
2022-12-14T04:04:13.199Z,6.13
2022-12-14T04:06:47.744Z,6.13
2022-12-14T04:09:28.988Z,5.93
2022-12-14T04:12:22.888Z,6.63
2022-12-14T04:15:14.896Z,6.20
2022-12-14T04:18:04.332Z,6.00
2022-12-14T04:20:42.182Z,6.37
2022-12-14T04:23:15.929Z,6.00
2022-12-14T04:26:05.458Z,6.47
2022-12-14T04:28:58.746Z,6.32
2022-12-14T04:31:30.804Z,5.88
2022-12-14T04:34:04.812Z,5.75
2022-12-14T04:36:42.851Z,5.28
2022-12-14T04:39:17.636Z,6.28
2022-12-14T04:41:51.411Z,6.07
2022-12-14T04:44:27.608Z,6.47
2022-12-14T04:46:59.003Z,6.90
2022-12-14T04:49:34.734Z,6.45
2022-12-14T04:52:12.650Z,5.95
2022-12-14T04:54:47.916Z,5.47
2022-12-14T04:57:24.526Z,6.43
2022-12-14T04:59:54.319Z,6.30
2022-12-14T05:02:35.220Z,6.47
2022-12-14T05:05:10.308Z,6.53
2022-12-14T05:07:48.768Z,6.70
2022-12-14T05:10:21.666Z,6.78
2022-12-14T05:12:57.513Z,6.43
2022-12-14T05:15:33.109Z,6.35
2022-12-14T05:18:04.539Z,6.88
2022-12-14T05:20:34.162Z,7.17
2022-12-14T05:23:04.671Z,7.07
2022-12-14T05:25:34.053Z,7.10
2022-12-14T05:28:03.208Z,7.25
2022-12-14T05:30:33.191Z,7.15
2022-12-14T05:33:02.472Z,9.32
2022-12-14T05:35:31.809Z,8.43
2022-12-14T05:38:00.919Z,7.35
2022-12-14T05:40:31.599Z,8.23
2022-12-14T05:43:06.341Z,7.20
2022-12-14T05:45:35.806Z,7.57
2022-12-14T05:48:04.975Z,6.53
2022-12-14T05:50:34.398Z,8.13
2022-12-14T05:53:03.362Z,8.37
2022-12-14T05:55:34.104Z,7.53
2022-12-14T05:58:03.218Z,6.47
2022-12-14T06:00:32.526Z,6.87
2022-12-14T06:03:01.695Z,7.73
2022-12-14T06:05:31.626Z,7.18
2022-12-14T06:08:00.660Z,7.80
2022-12-14T06:10:30.027Z,8.32
2022-12-14T06:13:00.504Z,10.65
2022-12-14T06:15:33.905Z,11.57
2022-12-14T06:18:03.386Z,10.83
2022-12-14T06:20:32.738Z,11.93
2022-12-14T06:23:02.126Z,11.45
2022-12-14T06:25:31.565Z,11.32
2022-12-14T06:28:02.034Z,11.87
2022-12-14T06:30:31.361Z,12.63
2022-12-14T06:33:00.356Z,10.50
2022-12-14T06:35:29.880Z,10.68
2022-12-14T06:37:58.898Z,11.60
2022-12-14T06:40:28.490Z,13.63
2022-12-14T06:42:57.611Z,13.10
2022-12-14T06:45:29.401Z,12.23
2022-12-14T06:47:59.074Z,12.25
2022-12-14T06:50:28.926Z,12.60
2022-12-14T06:52:58.055Z,13.55
2022-12-14T06:55:27.925Z,12.90
2022-12-14T06:57:57.332Z,12.10
2022-12-14T07:00:28.326Z,12.00
2022-12-14T07:02:57.507Z,11.37
2022-12-14T07:05:26.966Z,12.32
2022-12-14T07:07:56.616Z,13.40
2022-12-14T07:10:26.061Z,14.52
2022-12-14T07:12:55.246Z,15.80
2022-12-14T07:15:27.221Z,14.17
2022-12-14T07:17:56.328Z,13.83
2022-12-14T07:20:25.625Z,14.23
2022-12-14T07:22:54.681Z,13.50
2022-12-14T07:25:23.991Z,13.83
2022-12-14T07:27:53.505Z,11.60
2022-12-14T07:30:22.880Z,13.82
2022-12-14T07:32:53.327Z,15.65
2022-12-14T07:35:22.787Z,15.93
2022-12-14T07:37:51.859Z,18.50
2022-12-14T07:40:21.503Z,18.20
2022-12-14T07:42:50.783Z,16.15
2022-12-14T07:45:21.141Z,17.13
2022-12-14T07:47:50.211Z,16.70
2022-12-14T07:50:20.958Z,16.10
2022-12-14T07:52:50.152Z,15.97
2022-12-14T07:55:19.803Z,18.27
2022-12-14T07:57:49.187Z,17.73
2022-12-14T08:00:19.040Z,17.98
2022-12-14T08:02:48.087Z,17.02
2022-12-14T08:05:19.111Z,17.45
2022-12-14T08:07:48.245Z,15.02
2022-12-14T08:10:17.750Z,15.60
2022-12-14T08:12:47.501Z,13.90
2022-12-14T08:15:17.047Z,13.00
2022-12-14T08:17:46.040Z,14.18
2022-12-14T08:20:16.752Z,13.37
2022-12-14T08:22:47.223Z,15.07
2022-12-14T08:25:16.622Z,16.07
2022-12-14T08:27:46.339Z,13.07
2022-12-14T08:30:15.939Z,14.02
2022-12-14T08:32:44.973Z,14.95
2022-12-14T08:35:14.387Z,14.38
2022-12-14T08:37:47.436Z,13.50
2022-12-14T08:40:18.629Z,14.45
2022-12-14T08:42:50.581Z,15.53
2022-12-14T08:45:20.113Z,13.30
2022-12-14T08:47:49.797Z,14.25
2022-12-14T08:50:19.422Z,15.00
2022-12-14T08:52:49.186Z,14.30
2022-12-14T08:55:27.197Z,14.60
2022-12-14T08:57:58.986Z,14.88
2022-12-14T09:00:28.425Z,14.15
2022-12-14T09:02:57.733Z,13.00
2022-12-14T09:05:27.164Z,12.95
2022-12-14T09:07:56.563Z,14.43
2022-12-14T09:10:27.287Z,15.20
2022-12-14T09:12:56.377Z,13.95
2022-12-14T09:15:25.741Z,14.60
2022-12-14T09:17:54.836Z,14.25
2022-12-14T09:20:24.525Z,12.93
2022-12-14T09:22:54.096Z,14.38
2022-12-14T09:25:23.386Z,12.88
2022-12-14T09:27:53.904Z,14.13
2022-12-14T09:30:26.549Z,13.90
2022-12-14T09:32:56.184Z,13.43
2022-12-14T09:35:25.517Z,15.07
2022-12-14T09:37:54.558Z,16.08
2022-12-14T09:40:29.323Z,15.63
2022-12-14T09:43:05.067Z,16.35
2022-12-14T09:45:36.490Z,17.15
2022-12-14T09:48:15.747Z,16.95
2022-12-14T09:50:47.524Z,17.10
2022-12-14T09:53:18.727Z,16.67
2022-12-14T09:55:51.592Z,17.55
2022-12-14T09:58:24.247Z,16.23
2022-12-14T10:01:09.485Z,16.73
2022-12-14T10:03:56.456Z,15.43
2022-12-14T10:06:37.698Z,14.93
2022-12-14T10:09:17.802Z,14.80
2022-12-14T10:14:36.296Z,13.57
2022-12-14T10:17:19.280Z,14.38
2022-12-14T10:19:55.253Z,12.70
2022-12-14T10:22:30.563Z,13.70
2022-12-14T10:25:06.713Z,16.50
2022-12-14T10:28:01.082Z,16.85
2022-12-14T10:30:27.628Z,15.50
2022-12-14T10:33:07.744Z,15.43
2022-12-14T10:35:45.950Z,16.52
2022-12-14T10:38:25.307Z,16.33
2022-12-14T10:40:58.011Z,17.73
2022-12-14T10:43:44.399Z,15.23
2022-12-14T10:46:27.952Z,15.32
2022-12-14T10:49:03.799Z,14.82
2022-12-14T10:51:38.337Z,14.85
2022-12-14T10:54:18.502Z,13.55
2022-12-14T10:56:50.024Z,12.50
2022-12-14T10:59:38.404Z,13.35
2022-12-14T11:02:17.123Z,13.88
2022-12-14T11:04:51.481Z,15.07
2022-12-14T11:07:22.168Z,15.07
2022-12-14T11:09:51.756Z,15.52
2022-12-14T11:12:24.238Z,15.05
2022-12-14T11:14:59.603Z,15.53
2022-12-14T11:17:36.248Z,14.93
2022-12-14T11:20:21.022Z,12.88
2022-12-14T11:22:52.577Z,15.30
2022-12-14T11:25:36.035Z,14.43
2022-12-14T11:28:20.366Z,14.55
2022-12-14T11:30:57.367Z,14.52
2022-12-14T11:33:32.109Z,15.85
2022-12-14T11:36:01.986Z,13.32
2022-12-14T11:38:33.306Z,14.48
2022-12-14T11:41:10.958Z,14.50
2022-12-14T11:43:41.233Z,13.23
2022-12-14T11:46:10.676Z,14.70
2022-12-14T11:48:50.731Z,13.23
2022-12-14T11:54:03.908Z,13.63
2022-12-14T11:56:37.670Z,12.60
2022-12-14T11:59:06.975Z,14.20
2022-12-14T12:01:36.369Z,13.50
2022-12-14T12:04:13.207Z,13.18
2022-12-14T12:06:43.457Z,12.15
2022-12-14T12:09:31.876Z,12.82
2022-12-14T12:12:02.147Z,13.63
2022-12-14T12:14:35.059Z,12.57
2022-12-14T12:17:20.229Z,12.43
2022-12-14T12:19:53.314Z,11.88
2022-12-14T12:22:23.575Z,11.98
2022-12-14T12:25:24.377Z,10.43
2022-12-14T12:27:53.219Z,11.57
2022-12-14T12:30:28.731Z,12.73
2022-12-14T12:33:03.955Z,12.15
2022-12-14T12:35:40.659Z,13.25
2022-12-14T12:38:18.315Z,12.85
2022-12-14T12:40:59.295Z,13.20
2022-12-14T12:43:35.064Z,14.85
2022-12-14T12:46:13.456Z,14.48
2022-12-14T12:48:50.773Z,13.13
2022-12-14T12:51:23.816Z,13.80
2022-12-14T12:53:56.760Z,13.05
2022-12-14T12:56:30.336Z,13.85
2022-12-14T12:59:03.080Z,13.57
2022-12-14T13:04:36.181Z,14.70
2022-12-14T13:07:11.836Z,13.93
2022-12-14T13:09:45.560Z,12.77
2022-12-14T13:12:24.174Z,14.02
2022-12-14T13:14:56.046Z,12.07
2022-12-14T13:17:35.345Z,12.50
2022-12-14T13:20:08.086Z,13.32
2022-12-14T13:22:41.837Z,14.02
2022-12-14T13:25:23.686Z,13.63
2022-12-14T13:28:28.767Z,14.27
2022-12-14T13:31:15.793Z,10.18
2022-12-14T13:34:06.089Z,14.48
2022-12-14T13:39:40.541Z,12.45
2022-12-14T13:42:20.149Z,14.13
2022-12-14T13:44:57.216Z,14.40
2022-12-14T13:47:31.337Z,13.85
2022-12-14T13:52:58.924Z,14.10
2022-12-14T13:55:34.102Z,17.13
2022-12-14T13:58:17.456Z,15.10
2022-12-14T14:01:01.283Z,14.95
2022-12-14T14:03:53.397Z,15.65
2022-12-14T14:06:36.807Z,14.63
2022-12-14T14:09:51.176Z,15.10
2022-12-14T14:12:41.784Z,12.07
2022-12-14T14:18:48.392Z,12.85
2022-12-14T14:21:38.847Z,15.77
2022-12-14T14:24:24.035Z,13.77
2022-12-14T14:27:12.035Z,14.82
2022-12-14T14:29:49.659Z,14.82
2022-12-14T14:32:38.372Z,14.67
2022-12-14T14:35:10.290Z,13.30
2022-12-14T14:37:42.039Z,14.45
2022-12-14T14:40:44.241Z,14.63
2022-12-14T14:43:27.479Z,13.90
2022-12-14T14:46:02.130Z,11.83
2022-12-14T14:48:36.440Z,13.70
2022-12-14T14:51:14.692Z,14.20
2022-12-14T14:53:44.420Z,15.13
2022-12-14T14:56:40.487Z,14.77
2022-12-14T14:59:50.722Z,13.57
2022-12-14T15:02:33.289Z,14.35
2022-12-14T15:05:33.309Z,13.30
2022-12-14T15:07:56.439Z,13.93
2022-12-14T15:10:32.141Z,13.93
2022-12-14T15:13:06.069Z,13.82
2022-12-14T15:15:41.239Z,14.38
2022-12-14T15:18:22.712Z,14.77
2022-12-14T15:20:57.949Z,14.82
2022-12-14T15:23:30.015Z,15.52
2022-12-14T15:26:04.524Z,14.38
2022-12-14T15:28:34.466Z,15.90
2022-12-14T15:31:04.878Z,12.90
2022-12-14T15:33:37.888Z,14.57
2022-12-14T15:36:12.589Z,14.98
2022-12-14T15:38:41.728Z,15.02
2022-12-14T15:41:17.850Z,15.13
2022-12-14T15:43:48.682Z,13.35
2022-12-14T15:46:20.171Z,13.65
2022-12-14T15:49:00.659Z,16.13
2022-12-14T15:51:34.282Z,15.40
2022-12-14T15:54:05.784Z,16.63
2022-12-14T15:56:37.985Z,16.92
2022-12-14T15:59:16.754Z,15.45
2022-12-14T16:01:54.801Z,17.83
2022-12-14T16:04:29.248Z,17.98
2022-12-14T16:07:08.625Z,15.60
2022-12-14T16:09:43.263Z,18.85
2022-12-14T16:12:21.145Z,19.00
2022-12-14T16:14:57.141Z,26.13
2022-12-14T16:17:32.508Z,23.20
2022-12-14T16:20:19.636Z,21.30
2022-12-14T16:23:04.509Z,24.60
2022-12-14T16:25:37.621Z,26.87
2022-12-14T16:28:29.846Z,27.97
2022-12-14T16:31:05.467Z,26.40
2022-12-14T16:33:37.828Z,24.58
2022-12-14T16:36:13.041Z,22.17
2022-12-14T16:38:56.661Z,22.57
2022-12-14T16:41:38.791Z,21.95
2022-12-14T16:44:12.644Z,22.77
2022-12-14T16:46:52.048Z,25.90
2022-12-14T16:49:32.423Z,24.67
2022-12-14T16:52:07.702Z,26.38
2022-12-14T16:54:39.178Z,30.40
2022-12-14T16:57:22.075Z,28.98
2022-12-14T16:59:59.248Z,37.17
2022-12-14T17:02:33.029Z,32.03
2022-12-14T17:05:06.564Z,30.63
2022-12-14T17:07:39.766Z,29.00
2022-12-14T17:10:16.842Z,28.10
2022-12-14T17:12:46.054Z,32.75
2022-12-14T17:15:16.628Z,33.95
2022-12-14T17:20:26.288Z,32.10
2022-12-14T17:23:02.626Z,34.75
2022-12-14T17:25:35.989Z,36.13
2022-12-14T17:28:22.935Z,42.00
2022-12-14T17:30:57.047Z,27.83
2022-12-14T17:33:28.220Z,32.97
2022-12-14T17:35:58.227Z,46.60
2022-12-14T17:38:29.871Z,42.88
2022-12-14T17:40:59.604Z,33.70
2022-12-14T17:43:29.483Z,38.87
2022-12-14T17:46:03.299Z,36.90
2022-12-14T17:48:32.549Z,28.80
2022-12-14T17:51:02.852Z,29.80
2022-12-14T17:53:34.418Z,36.38
2022-12-14T17:56:05.301Z,40.10
2022-12-14T17:58:34.367Z,28.08
2022-12-14T18:01:04.626Z,27.57
2022-12-14T18:06:06.654Z,23.63
2022-12-14T18:08:37.564Z,26.10
2022-12-14T18:11:13.310Z,25.55
2022-12-14T18:13:43.360Z,25.65
2022-12-14T18:16:14.509Z,25.10
2022-12-14T18:18:45.990Z,26.70
2022-12-14T18:21:18.912Z,25.88
2022-12-14T18:23:50.572Z,28.63
2022-12-14T18:26:21.233Z,25.23
2022-12-14T18:31:24.833Z,24.02
2022-12-14T18:33:56.909Z,25.95
2022-12-14T18:36:26.532Z,25.98
2022-12-14T18:38:57.572Z,33.53
2022-12-14T18:41:29.632Z,36.27
2022-12-14T18:44:00.530Z,38.95
2022-12-14T18:46:30.231Z,32.58
2022-12-14T18:48:59.441Z,31.42
2022-12-14T18:51:28.842Z,37.30
2022-12-14T18:54:03.974Z,34.05
2022-12-14T18:56:34.348Z,37.97
2022-12-14T19:01:36.882Z,32.03
2022-12-14T19:04:07.647Z,32.28
2022-12-14T19:06:45.430Z,33.63
2022-12-14T19:09:16.938Z,32.97
2022-12-14T19:11:47.471Z,31.93
2022-12-14T19:14:19.491Z,33.90
2022-12-14T19:16:48.968Z,34.30
2022-12-14T19:19:22.508Z,40.23
2022-12-14T19:21:53.649Z,36.47
2022-12-14T19:24:24.247Z,34.67
2022-12-14T19:26:54.021Z,31.70
2022-12-14T19:29:23.173Z,32.42
2022-12-14T19:31:54.421Z,34.35
2022-12-14T19:34:25.727Z,34.30
2022-12-14T19:36:55.395Z,34.13
2022-12-14T19:39:26.152Z,35.27
2022-12-14T19:41:56.943Z,38.40
2022-12-14T19:44:26.092Z,34.75
2022-12-14T19:46:56.739Z,35.90
2022-12-14T19:51:55.572Z,32.30
2022-12-14T19:54:27.894Z,34.03
2022-12-14T19:56:57.825Z,41.50
2022-12-14T19:59:26.911Z,41.92
2022-12-14T20:01:57.629Z,44.03
2022-12-14T20:04:27.324Z,45.63
2022-12-14T20:06:56.981Z,40.25
2022-12-14T20:09:27.828Z,38.87
2022-12-14T20:11:58.056Z,40.67
2022-12-14T20:14:27.559Z,42.55
2022-12-14T20:16:57.227Z,39.78
2022-12-14T20:19:26.602Z,41.83
2022-12-14T20:21:55.952Z,38.92
2022-12-14T20:24:26.715Z,41.87
2022-12-14T20:26:56.180Z,47.63
2022-12-14T20:29:27.344Z,45.13
2022-12-14T20:31:56.876Z,45.95
2022-12-14T20:34:26.681Z,43.90
2022-12-14T20:36:56.048Z,44.40
2022-12-14T20:39:26.978Z,40.60
2022-12-14T20:41:56.460Z,38.77
2022-12-14T20:44:26.120Z,40.27
2022-12-14T20:46:55.640Z,40.92
2022-12-14T20:49:29.913Z,37.80
2022-12-14T20:52:00.023Z,36.23
2022-12-14T20:54:30.487Z,35.75
2022-12-14T20:57:01.376Z,35.83
2022-12-14T20:59:30.783Z,34.78
2022-12-14T21:02:00.244Z,33.27
2022-12-14T21:04:29.491Z,34.03
2022-12-14T21:06:59.238Z,33.93
2022-12-14T21:09:29.785Z,32.55
2022-12-14T21:12:16.196Z,36.87
2022-12-14T21:14:48.194Z,35.73
2022-12-14T21:17:18.269Z,33.03
2022-12-14T21:19:47.557Z,32.97
2022-12-14T21:22:19.150Z,34.00
2022-12-14T21:25:03.067Z,32.13
2022-12-14T21:27:36.295Z,34.70
2022-12-14T21:30:07.596Z,34.83
2022-12-14T21:32:39.470Z,36.50
2022-12-14T21:35:09.693Z,31.65
2022-12-14T21:37:39.777Z,33.53
2022-12-14T21:40:31.971Z,31.02
2022-12-14T21:43:00.788Z,32.77
2022-12-14T21:45:29.918Z,34.30
2022-12-14T21:47:59.628Z,32.90
2022-12-14T21:50:28.647Z,33.47
2022-12-14T21:52:57.971Z,34.47
2022-12-14T21:55:28.507Z,33.50
2022-12-14T21:58:15.313Z,34.87
2022-12-14T22:00:44.477Z,36.07
2022-12-14T22:03:14.148Z,36.63
2022-12-14T22:05:43.306Z,36.90
2022-12-14T22:08:12.641Z,38.30
2022-12-14T22:10:43.117Z,39.00
2022-12-14T22:13:12.589Z,40.50
2022-12-14T22:15:41.605Z,34.90
2022-12-14T22:18:11.360Z,35.38
2022-12-14T22:20:40.408Z,35.95
2022-12-14T22:23:09.830Z,34.80
2022-12-14T22:25:38.852Z,35.70
2022-12-14T22:28:09.777Z,35.97
2022-12-14T22:30:38.889Z,38.90
2022-12-14T22:33:08.232Z,36.23
2022-12-14T22:35:37.341Z,38.67
2022-12-14T22:38:06.684Z,34.63
2022-12-14T22:40:35.947Z,34.87
2022-12-14T22:43:05.427Z,33.63
2022-12-14T22:45:36.456Z,33.37
2022-12-14T22:48:06.137Z,34.20
2022-12-14T22:50:35.200Z,35.43
2022-12-14T22:53:04.565Z,34.53
2022-12-14T22:55:38.728Z,33.73
2022-12-14T22:58:12.095Z,35.00
2022-12-14T23:00:42.624Z,33.37
2022-12-14T23:03:12.836Z,35.50
2022-12-14T23:05:42.741Z,32.00
2022-12-14T23:08:12.074Z,33.60
2022-12-14T23:10:58.705Z,32.67
2022-12-14T23:13:45.433Z,31.80
2022-12-14T23:16:33.444Z,33.10
2022-12-14T23:19:20.103Z,33.60
2022-12-14T23:22:07.931Z,33.00
2022-12-14T23:24:54.870Z,34.03
2022-12-14T23:27:41.264Z,33.20
2022-12-14T23:30:29.722Z,33.40
2022-12-14T23:33:17.753Z,33.80
2022-12-14T23:36:04.327Z,31.73
2022-12-14T23:38:50.831Z,33.27
2022-12-14T23:41:37.611Z,29.63
2022-12-14T23:44:23.939Z,33.43
2022-12-14T23:47:10.818Z,39.90
2022-12-14T23:49:58.499Z,35.67
2022-12-14T23:52:44.975Z,37.17
2022-12-14T23:55:31.527Z,35.27
2022-12-14T23:58:18.240Z,39.37
